createdAt,value
2018-02-06T00:01:31.770Z,10.43
2018-02-06T00:04:01.737Z,13.77
2018-02-06T00:06:32.516Z,9.40
2018-02-06T00:09:02.410Z,18.10
2018-02-06T00:11:32.293Z,12.63
2018-02-06T00:14:02.132Z,9.40
2018-02-06T00:16:32.000Z,12.20
2018-02-06T00:19:02.021Z,12.83
2018-02-06T00:21:32.523Z,11.57
2018-02-06T00:24:02.378Z,12.20
2018-02-06T00:26:32.300Z,9.70
2018-02-06T00:29:02.152Z,12.97
2018-02-06T00:31:32.281Z,11.83
2018-02-06T00:34:02.159Z,12.50
2018-02-06T00:36:32.314Z,15.97
2018-02-06T00:39:02.210Z,15.00
2018-02-06T00:41:32.502Z,10.90
2018-02-06T00:44:02.400Z,13.13
2018-02-06T00:46:32.289Z,10.10
2018-02-06T00:49:02.260Z,22.97
2018-02-06T00:51:32.450Z,10.07
2018-02-06T00:54:02.324Z,12.60
2018-02-06T00:56:32.614Z,10.17
2018-02-06T00:59:02.444Z,14.00
2018-02-06T01:01:32.371Z,16.90
2018-02-06T01:04:02.305Z,12.93
2018-02-06T01:06:32.208Z,14.70
2018-02-06T01:09:02.105Z,13.43
2018-02-06T01:11:32.015Z,10.53
2018-02-06T01:14:02.012Z,13.70
2018-02-06T01:16:32.237Z,8.37
2018-02-06T01:19:02.505Z,14.80
2018-02-06T01:21:32.643Z,11.43
2018-02-06T01:24:02.579Z,11.87
2018-02-06T01:26:32.469Z,10.83
2018-02-06T01:29:02.366Z,12.73
2018-02-06T01:31:32.285Z,9.57
2018-02-06T01:34:02.364Z,10.30
2018-02-06T01:36:32.577Z,10.40
2018-02-06T01:39:02.463Z,12.90
2018-02-06T01:41:32.489Z,11.33
2018-02-06T01:44:02.341Z,9.93
2018-02-06T01:46:32.288Z,12.47
2018-02-06T01:49:02.182Z,11.40
2018-02-06T01:51:32.325Z,13.63
2018-02-06T01:54:02.446Z,12.70
2018-02-06T01:56:32.730Z,10.53
2018-02-06T01:59:02.621Z,14.03
2018-02-06T02:01:34.505Z,9.03
2018-02-06T02:04:04.449Z,14.57
2018-02-06T02:06:34.382Z,10.07
2018-02-06T02:09:04.241Z,12.13
2018-02-06T02:11:34.133Z,9.57
2018-02-06T02:14:03.977Z,16.70
2018-02-06T02:16:34.169Z,13.00
2018-02-06T02:19:04.034Z,13.97
2018-02-06T02:21:34.165Z,9.67
2018-02-06T02:24:04.058Z,11.97
2018-02-06T02:26:33.955Z,14.90
2018-02-06T02:29:03.869Z,11.30
2018-02-06T02:31:33.746Z,19.13
2018-02-06T02:34:03.686Z,18.23
2018-02-06T02:36:33.603Z,13.30
2018-02-06T02:39:03.522Z,13.60
2018-02-06T02:41:33.432Z,15.43
2018-02-06T04:39:04.251Z,17.03
2018-02-06T04:41:34.279Z,18.50
2018-02-06T04:44:04.223Z,15.23
2018-02-06T04:46:34.417Z,17.50
2018-02-06T04:49:04.322Z,15.30
2018-02-06T04:51:34.171Z,16.23
2018-02-06T04:54:04.077Z,23.10
2018-02-06T04:56:34.127Z,17.27
2018-02-06T04:59:04.020Z,15.37
2018-02-06T05:01:34.193Z,16.23
2018-02-06T05:04:04.069Z,17.27
2018-02-06T05:06:34.300Z,15.60
2018-02-06T05:09:04.220Z,18.33
2018-02-06T05:11:34.426Z,17.50
2018-02-06T05:14:04.504Z,20.97
2018-02-06T05:16:34.433Z,14.73
2018-02-06T05:19:04.383Z,18.00
2018-02-06T05:21:34.312Z,18.40
2018-02-06T05:24:04.378Z,18.27
2018-02-06T05:26:34.308Z,18.23
2018-02-06T05:29:04.268Z,15.43
2018-02-06T05:31:34.208Z,16.37
2018-02-06T05:34:04.152Z,15.97
2018-02-06T05:36:34.065Z,16.53
2018-02-06T05:39:03.960Z,17.40
2018-02-06T05:41:34.188Z,22.73
2018-02-06T05:44:04.059Z,16.10
2018-02-06T05:46:33.996Z,19.10
2018-02-06T05:49:04.003Z,18.90
2018-02-06T05:51:33.945Z,15.53
2018-02-06T05:54:03.803Z,16.63
2018-02-06T05:56:33.731Z,26.67
2018-02-06T05:59:03.590Z,20.33
2018-02-06T06:01:33.514Z,26.40
2018-02-06T06:04:03.407Z,15.83
2018-02-06T06:06:33.305Z,17.27
2018-02-06T06:09:03.202Z,21.73
2018-02-06T06:11:33.097Z,17.83
2018-02-06T06:14:03.314Z,18.70
2018-02-06T06:16:33.335Z,17.57
2018-02-06T06:19:03.657Z,18.13
2018-02-06T06:21:33.499Z,14.97
2018-02-06T06:24:03.736Z,20.50
2018-02-06T06:26:33.690Z,17.70
2018-02-06T06:29:03.632Z,19.83
2018-02-06T06:31:33.538Z,19.77
2018-02-06T06:34:03.475Z,15.77
2018-02-06T06:36:33.408Z,20.20
2018-02-06T06:39:03.629Z,17.30
2018-02-06T06:41:33.549Z,17.73
2018-02-06T06:44:03.500Z,22.67
2018-02-06T06:46:33.444Z,17.57
2018-02-06T06:49:03.537Z,17.60
2018-02-06T06:51:34.242Z,19.47
2018-02-06T06:54:04.141Z,22.13
2018-02-06T06:56:34.124Z,21.33
2018-02-06T06:59:04.112Z,18.77
2018-02-06T07:01:34.006Z,20.77
2018-02-06T07:04:03.971Z,21.47
2018-02-06T07:06:33.903Z,22.80
2018-02-06T07:09:03.949Z,16.97
2018-02-06T07:11:34.129Z,19.53
2018-02-06T07:14:04.159Z,17.80
2018-02-06T07:16:34.109Z,16.50
2018-02-06T07:19:03.981Z,20.77
2018-02-06T07:21:33.872Z,15.80
2018-02-06T07:24:03.862Z,16.83
2018-02-06T07:26:33.789Z,28.20
2018-02-06T07:29:03.654Z,17.63
2018-02-06T07:31:33.627Z,17.67
2018-02-06T07:34:04.337Z,22.83
2018-02-06T07:36:34.281Z,15.60
2018-02-06T07:39:04.150Z,19.03
2018-02-06T07:41:34.063Z,21.17
2018-02-06T07:44:03.968Z,24.27
2018-02-06T07:46:34.026Z,18.47
2018-02-06T07:49:03.896Z,17.10
2018-02-06T07:51:33.972Z,20.40
2018-02-06T07:54:03.905Z,23.00
2018-02-06T07:56:33.839Z,17.07
2018-02-06T07:59:03.760Z,18.63
2018-02-06T08:01:33.646Z,20.77
2018-02-06T08:04:03.583Z,21.27
2018-02-06T08:06:33.580Z,22.90
2018-02-06T08:09:03.553Z,19.40
2018-02-06T08:11:33.588Z,19.20
2018-02-06T08:14:03.616Z,23.90
2018-02-06T08:16:33.562Z,21.90
2018-02-06T08:19:04.874Z,23.10
2018-02-06T08:21:38.696Z,18.17
2018-02-06T08:24:11.522Z,18.50
2018-02-06T08:26:43.015Z,22.83
2018-02-06T08:29:15.672Z,14.70
2018-02-06T08:31:46.045Z,19.17
2018-02-06T08:34:18.188Z,19.50
2018-02-06T08:36:48.446Z,19.00
2018-02-06T08:39:42.549Z,16.57
2018-02-06T08:42:12.953Z,22.70
2018-02-06T08:44:46.533Z,13.30
2018-02-06T08:47:19.070Z,21.23
2018-02-06T08:49:50.343Z,16.40
2018-02-06T08:52:23.539Z,15.90
2018-02-06T08:54:58.799Z,13.30
2018-02-06T08:57:33.119Z,15.20
2018-02-06T09:00:06.347Z,15.50
2018-02-06T09:02:40.000Z,17.83
2018-02-06T09:05:16.604Z,14.30
2018-02-06T09:07:48.752Z,14.00
2018-02-06T09:10:25.335Z,18.00
2018-02-06T09:12:59.908Z,19.27
2018-02-06T09:15:33.615Z,15.73
2018-02-06T09:18:04.399Z,11.50
2018-02-06T09:20:38.997Z,18.30
2018-02-06T09:23:12.901Z,12.70
2018-02-06T09:25:49.000Z,13.00
2018-02-06T09:28:23.006Z,13.90
2018-02-06T09:30:53.804Z,11.20
2018-02-06T09:33:24.024Z,12.13
2018-02-06T09:36:01.996Z,16.60
2018-02-06T09:38:34.846Z,11.77
2018-02-06T09:41:06.301Z,12.83
2018-02-06T09:43:40.999Z,10.73
2018-02-06T09:46:11.995Z,14.73
2018-02-06T09:48:43.892Z,14.40
2018-02-06T09:51:14.525Z,7.60
2018-02-06T09:53:45.835Z,13.17
2018-02-06T09:56:16.735Z,12.33
2018-02-06T09:58:54.270Z,10.57
2018-02-06T10:01:25.224Z,9.87
2018-02-06T10:03:55.555Z,10.73
2018-02-06T10:06:25.984Z,12.73
2018-02-06T10:08:56.170Z,8.90
2018-02-06T10:11:26.604Z,7.70
2018-02-06T10:13:56.506Z,9.40
2018-02-06T10:16:26.782Z,9.90
2018-02-06T10:18:56.762Z,10.63
2018-02-06T10:21:27.252Z,8.00
2018-02-06T10:23:57.156Z,8.00
2018-02-06T10:26:27.335Z,7.53
2018-02-06T10:28:57.223Z,9.50
2018-02-06T10:31:27.496Z,8.07
2018-02-06T10:33:57.383Z,5.00
2018-02-06T10:36:27.808Z,11.57
2018-02-06T10:38:59.381Z,12.30
2018-02-06T10:41:32.686Z,7.83
2018-02-06T10:44:05.422Z,12.77
2018-02-06T10:46:36.041Z,6.90
2018-02-06T10:49:06.240Z,7.03
2018-02-06T10:51:36.605Z,7.53
2018-02-06T10:54:06.694Z,6.73
2018-02-06T10:56:36.917Z,9.20
2018-02-06T10:59:06.929Z,7.07
2018-02-06T11:01:37.996Z,8.27
2018-02-06T11:04:07.875Z,9.13
2018-02-06T11:06:37.757Z,10.17
2018-02-06T11:09:07.757Z,13.53
2018-02-06T11:11:37.637Z,7.97
2018-02-06T11:14:07.830Z,6.83
2018-02-06T11:16:37.683Z,5.20
2018-02-06T11:19:07.720Z,13.23
2018-02-06T11:21:37.566Z,8.27
2018-02-06T11:24:07.419Z,10.40
2018-02-06T11:26:37.623Z,9.73
2018-02-06T11:29:07.618Z,8.60
2018-02-06T11:31:37.821Z,9.50
2018-02-06T11:34:07.808Z,10.80
2018-02-06T11:36:37.841Z,6.50
2018-02-06T11:39:08.664Z,6.17
2018-02-06T11:41:50.788Z,5.87
2018-02-06T11:44:21.760Z,7.17
2018-02-06T11:46:51.625Z,7.47
2018-02-06T11:49:29.698Z,5.10
2018-02-06T11:55:18.297Z,12.53
2018-02-06T12:03:53.804Z,4.77
2018-02-06T12:06:25.392Z,6.40
2018-02-06T12:08:55.730Z,10.77
2018-02-06T12:11:25.989Z,6.03
2018-02-06T12:13:55.821Z,7.30
2018-02-06T12:16:25.783Z,6.57
2018-02-06T12:18:55.664Z,12.33
2018-02-06T12:21:25.584Z,9.63
2018-02-06T12:23:55.800Z,10.13
2018-02-06T12:26:25.913Z,6.80
2018-02-06T12:28:57.481Z,8.17
2018-02-06T12:31:27.494Z,8.10
2018-02-06T12:33:57.805Z,6.83
2018-02-06T12:36:27.659Z,7.73
2018-02-06T12:38:57.864Z,10.77
2018-02-06T12:41:27.714Z,8.70
2018-02-06T12:43:57.692Z,8.00
2018-02-06T12:46:27.524Z,8.77
2018-02-06T12:51:42.493Z,8.20
2018-02-06T12:54:12.473Z,6.50
2018-02-06T12:56:42.786Z,6.30
2018-02-06T12:59:12.733Z,17.63
2018-02-06T13:01:43.125Z,6.80
2018-02-06T13:04:13.040Z,9.20
2018-02-06T13:06:43.375Z,26.20
2018-02-06T13:09:13.291Z,8.27
2018-02-06T13:11:43.642Z,8.40
2018-02-06T13:14:13.473Z,9.20
2018-02-06T13:16:43.815Z,7.07
2018-02-06T13:19:13.683Z,7.97
2018-02-06T13:21:44.814Z,6.60
2018-02-06T13:24:14.676Z,6.57
2018-02-06T13:26:44.888Z,6.23
2018-02-06T13:29:14.846Z,9.80
2018-02-06T13:31:44.739Z,8.03
2018-02-06T13:34:15.173Z,6.73
2018-02-06T13:36:45.042Z,6.50
2018-02-06T13:39:15.390Z,6.30
2018-02-06T13:41:45.269Z,8.17
2018-02-06T13:44:15.602Z,7.17
2018-02-06T13:46:45.531Z,6.70
2018-02-06T13:49:15.882Z,6.00
2018-02-06T13:51:45.912Z,9.53
2018-02-06T13:54:16.256Z,7.50
2018-02-06T13:56:46.102Z,6.57
2018-02-06T13:59:16.397Z,9.90
2018-02-06T14:01:46.535Z,9.43
2018-02-06T14:04:16.722Z,6.07
2018-02-06T14:06:46.595Z,7.90
2018-02-06T14:09:16.980Z,7.20
2018-02-06T14:11:46.826Z,6.20
2018-02-06T14:14:16.773Z,7.80
2018-02-06T14:16:46.666Z,6.10
2018-02-06T14:19:16.589Z,5.93
2018-02-06T14:21:46.837Z,4.93
2018-02-06T14:24:16.707Z,4.17
2018-02-06T14:26:46.670Z,11.57
2018-02-06T14:29:16.551Z,4.07
2018-02-06T14:31:46.425Z,6.27
2018-02-06T14:34:16.683Z,6.97
2018-02-06T14:36:46.666Z,25.23
2018-02-06T14:39:17.087Z,12.53
2018-02-06T14:41:46.958Z,9.57
2018-02-06T14:44:17.178Z,9.80
2018-02-06T14:46:47.127Z,7.17
2018-02-06T14:49:17.933Z,9.20
2018-02-06T14:51:47.912Z,6.47
2018-02-06T14:54:18.181Z,9.87
2018-02-06T14:56:49.160Z,7.70
2018-02-06T14:59:19.524Z,9.43
2018-02-06T15:01:49.500Z,18.33
2018-02-06T15:04:19.703Z,8.30
2018-02-06T15:06:49.751Z,10.30
2018-02-06T15:09:20.216Z,13.53
2018-02-06T15:11:50.229Z,10.07
2018-02-06T15:14:20.471Z,9.37
2018-02-06T15:16:50.385Z,8.40
2018-02-06T15:19:20.920Z,8.80
2018-02-06T15:21:50.994Z,10.67
2018-02-06T15:24:21.467Z,8.30
2018-02-06T15:26:51.372Z,7.63
2018-02-06T15:29:22.371Z,12.37
2018-02-06T15:31:52.445Z,18.10
2018-02-06T15:34:22.791Z,7.97
2018-02-06T15:36:52.667Z,8.03
2018-02-06T15:39:22.990Z,8.77
2018-02-06T15:41:52.843Z,9.77
2018-02-06T15:44:22.726Z,9.43
2018-02-06T15:46:52.591Z,10.03
2018-02-06T15:49:22.478Z,7.87
2018-02-06T15:51:52.490Z,10.40
2018-02-06T15:54:22.384Z,13.30
2018-02-06T15:56:52.897Z,14.93
2018-02-06T15:59:22.737Z,7.67
2018-02-06T16:01:52.707Z,11.00
2018-02-06T16:04:23.017Z,7.20
2018-02-06T16:06:52.877Z,8.73
2018-02-06T16:09:23.061Z,10.50
2018-02-06T16:11:52.993Z,12.93
2018-02-06T16:14:23.273Z,14.27
2018-02-06T16:16:53.258Z,10.70
2018-02-06T16:19:23.509Z,11.60
2018-02-06T16:21:53.542Z,11.90
2018-02-06T16:24:24.051Z,10.10
2018-02-06T16:26:54.048Z,10.83
2018-02-06T16:29:24.429Z,9.73
2018-02-06T16:31:56.593Z,13.80
2018-02-06T16:34:26.932Z,11.63
2018-02-06T16:36:56.816Z,9.63
2018-02-06T16:39:26.760Z,11.93
2018-02-06T16:41:56.674Z,11.43
2018-02-06T16:44:26.628Z,14.57
2018-02-06T16:46:56.861Z,11.03
2018-02-06T16:49:26.752Z,11.73
2018-02-06T16:51:56.650Z,12.67
2018-02-06T16:54:26.609Z,13.13
2018-02-06T16:56:57.401Z,17.13
2018-02-06T16:59:27.292Z,10.00
2018-02-06T17:01:57.251Z,13.17
2018-02-06T17:04:27.086Z,12.63
2018-02-06T17:06:56.962Z,12.73
2018-02-06T17:09:27.258Z,17.47
2018-02-06T17:11:57.169Z,11.93
2018-02-06T17:14:27.497Z,12.70
2018-02-06T17:16:57.381Z,14.43
2018-02-06T17:19:27.626Z,16.10
2018-02-06T17:21:57.597Z,14.93
2018-02-06T17:24:28.250Z,13.83
2018-02-06T17:26:58.132Z,15.27
2018-02-06T17:29:28.414Z,16.93
2018-02-06T17:31:58.281Z,13.10
2018-02-06T17:34:28.499Z,10.67
2018-02-06T17:36:58.540Z,12.30
2018-02-06T17:39:28.770Z,13.10
2018-02-06T17:41:58.615Z,13.33
2018-02-06T17:44:28.551Z,14.10
2018-02-06T17:46:58.442Z,20.60
2018-02-06T17:49:28.328Z,13.53
2018-02-06T17:51:58.249Z,11.87
2018-02-06T17:54:28.093Z,16.90
2018-02-06T17:56:58.088Z,12.00
2018-02-06T17:59:28.313Z,12.60
2018-02-06T18:01:58.511Z,10.97
2018-02-06T18:04:28.350Z,14.80
2018-02-06T18:06:59.437Z,13.33
2018-02-06T18:09:29.387Z,24.70
2018-02-06T18:12:00.176Z,17.60
2018-02-06T18:14:30.033Z,19.23
2018-02-06T18:17:00.349Z,14.90
2018-02-06T18:19:30.949Z,18.07
2018-02-06T18:22:01.218Z,21.77
2018-02-06T18:24:31.095Z,17.57
2018-02-06T18:27:01.420Z,20.13
2018-02-06T18:29:31.324Z,10.23
2018-02-06T18:32:01.640Z,12.97
2018-02-06T18:34:31.550Z,13.17
2018-02-06T18:37:01.766Z,15.27
2018-02-06T18:39:31.742Z,9.43
2018-02-06T18:42:01.638Z,14.40
2018-02-06T18:44:31.516Z,14.43
2018-02-06T18:47:01.454Z,12.33
2018-02-06T18:49:31.690Z,13.33
2018-02-06T18:52:01.604Z,16.77
2018-02-06T18:54:31.894Z,12.40
2018-02-06T18:57:01.748Z,18.70
2018-02-06T18:59:31.622Z,17.70
2018-02-06T19:02:01.484Z,13.17
2018-02-06T19:04:31.746Z,13.57
2018-02-06T19:07:02.053Z,16.40
2018-02-06T19:09:31.960Z,15.00
2018-02-06T19:12:02.237Z,14.40
2018-02-06T19:14:32.076Z,10.40
2018-02-06T19:17:02.470Z,12.20
2018-02-06T19:19:32.429Z,15.07
2018-02-06T19:22:02.709Z,14.93
2018-02-06T19:24:32.638Z,11.93
2018-02-06T19:27:02.944Z,15.53
2018-02-06T19:29:33.790Z,14.60
2018-02-06T19:32:04.105Z,14.07
2018-02-06T19:34:33.971Z,17.47
2018-02-06T19:37:05.256Z,15.57
2018-02-06T19:39:35.189Z,19.67
2018-02-06T19:42:05.393Z,16.67
2018-02-06T19:44:35.300Z,19.83
2018-02-06T19:47:05.653Z,13.87
2018-02-06T19:49:35.589Z,14.67
2018-02-06T19:52:05.871Z,14.70
2018-02-06T19:54:35.733Z,14.90
2018-02-06T19:57:05.652Z,19.43
2018-02-06T19:59:36.419Z,23.57
2018-02-06T20:02:07.144Z,21.30
2018-02-06T20:04:37.380Z,19.37
2018-02-06T20:07:07.303Z,20.57
2018-02-06T20:09:37.527Z,19.13
2018-02-06T20:12:07.434Z,14.70
2018-02-06T20:14:37.846Z,18.23
2018-02-06T20:17:09.391Z,17.30
2018-02-06T20:19:39.597Z,17.87
2018-02-06T20:22:09.455Z,21.90
2018-02-06T20:24:39.788Z,18.47
2018-02-06T20:27:09.677Z,18.40
2018-02-06T20:29:40.117Z,16.87
2018-02-06T20:32:09.974Z,16.27
2018-02-06T20:34:41.049Z,20.13
2018-02-06T20:37:10.927Z,18.73
2018-02-06T20:39:41.199Z,17.00
2018-02-06T20:42:11.221Z,16.07
2018-02-06T20:44:42.026Z,20.43
2018-02-06T20:47:11.915Z,17.33
2018-02-06T20:49:42.144Z,17.77
2018-02-06T20:52:12.036Z,19.70
2018-02-06T20:54:42.230Z,16.63
2018-02-06T20:57:12.152Z,18.23
2018-02-06T20:59:42.351Z,14.83
2018-02-06T21:02:12.195Z,18.27
2018-02-06T21:04:42.758Z,15.60
2018-02-06T21:07:12.647Z,14.83
2018-02-06T21:09:43.049Z,18.67
2018-02-06T21:12:12.983Z,14.00
2018-02-06T21:14:43.250Z,14.27
2018-02-06T21:17:13.097Z,18.80
2018-02-06T21:19:43.410Z,15.50
2018-02-06T21:22:13.288Z,20.03
2018-02-06T21:24:43.658Z,14.97
2018-02-06T21:27:13.530Z,17.70
2018-02-06T21:29:43.878Z,18.53
2018-02-06T21:32:13.791Z,18.73
2018-02-06T21:34:44.172Z,15.57
2018-02-06T21:37:14.087Z,16.43
2018-02-06T21:39:44.300Z,14.17
2018-02-06T21:42:14.142Z,17.80
2018-02-06T21:44:44.511Z,19.40
2018-02-06T21:47:15.270Z,17.30
2018-02-06T21:49:45.656Z,19.13
2018-02-06T21:52:15.653Z,19.47
2018-02-06T21:54:46.815Z,15.27
2018-02-06T21:57:16.683Z,21.53
2018-02-06T21:59:46.622Z,14.90
2018-02-06T22:02:16.498Z,14.20
2018-02-06T22:04:46.407Z,16.80
2018-02-06T22:07:16.624Z,16.60
2018-02-06T22:09:46.484Z,18.13
2018-02-06T22:12:16.722Z,15.87
2018-02-06T22:14:46.577Z,18.40
2018-02-06T22:17:17.011Z,19.90
2018-02-06T22:19:46.914Z,18.40
2018-02-06T22:22:17.093Z,16.63
2018-02-06T22:24:46.954Z,18.47
2018-02-06T22:27:17.292Z,18.23
2018-02-06T22:29:47.160Z,17.40
2018-02-06T22:32:17.453Z,18.53
2018-02-06T22:34:47.345Z,18.03
2018-02-06T22:37:17.653Z,19.80
2018-02-06T22:39:47.566Z,16.03
2018-02-06T22:42:17.902Z,13.50
2018-02-06T22:44:47.743Z,16.07
2018-02-06T22:47:17.665Z,13.13
2018-02-06T22:49:47.502Z,15.60
2018-02-06T22:55:23.020Z,19.50
2018-02-06T22:57:52.884Z,15.20
2018-02-06T23:00:25.243Z,15.03
2018-02-06T23:02:55.097Z,15.10
2018-02-06T23:05:25.285Z,15.80
2018-02-06T23:07:55.161Z,17.87
2018-02-06T23:10:25.410Z,17.37
2018-02-06T23:12:55.261Z,17.93
2018-02-06T23:15:25.493Z,15.70
2018-02-06T23:17:55.713Z,15.57
2018-02-06T23:20:25.947Z,15.77
2018-02-06T23:22:55.911Z,16.83
2018-02-06T23:25:26.185Z,17.53
2018-02-06T23:27:56.087Z,20.27
2018-02-06T23:30:26.296Z,15.83
2018-02-06T23:32:56.216Z,16.40
2018-02-06T23:35:26.469Z,20.10
2018-02-06T23:37:56.345Z,19.73
2018-02-06T23:40:26.622Z,23.83
2018-02-06T23:42:56.500Z,23.80
2018-02-06T23:45:26.781Z,19.77
2018-02-06T23:47:56.653Z,27.17
2018-02-06T23:50:26.888Z,13.83
2018-02-06T23:52:56.775Z,20.17
2018-02-06T23:55:27.068Z,18.40
2018-02-06T23:57:56.918Z,22.00
